Time;durP1;ratioP1;P1;durP2;ratioP2;P2;SDS_P1;SDS_P2;PMS_P1;PMS_P2;Temp;Humidity;BMP_temperature;BMP_pressure;BME280_temperature;BME280_humidity;BME280_pressure;Samples;Min_cycle;Max_cycle;Signal;HPM_P1;HPM_P2
2023/04/13 00:02:19;;;;;;;4.75;1.92;;;;;;;4.89;100.00;99306.28;5052531;28;20035;-58
2023/04/13 00:04:44;;;;;;;9.32;2.25;;;;;;;4.88;100.00;99302.00;5052120;28;20049;-57
2023/04/13 00:07:13;;;;;;;5.68;2.15;;;;;;;4.89;100.00;99305.41;5052923;28;20025;-58
2023/04/13 00:09:39;;;;;;;7.05;2.20;;;;;;;4.87;100.00;99290.03;5052664;28;20041;-57
2023/04/13 00:12:04;;;;;;;4.82;2.25;;;;;;;4.88;100.00;99296.00;5051969;28;20468;-57
2023/04/13 00:14:32;;;;;;;8.50;2.25;;;;;;;4.89;100.00;99295.19;5052405;28;20103;-57
2023/04/13 00:16:59;;;;;;;5.95;2.28;;;;;;;4.91;100.00;99294.41;5052901;28;20025;-57
2023/04/13 00:19:25;;;;;;;7.68;2.40;;;;;;;4.91;100.00;99296.97;5051688;28;20060;-57
2023/04/13 00:21:54;;;;;;;7.20;2.10;;;;;;;4.99;100.00;99298.88;5052654;28;20035;-58
2023/04/13 00:24:19;;;;;;;5.68;2.25;;;;;;;5.03;100.00;99280.25;5052340;28;20021;-58
2023/04/13 00:26:45;;;;;;;6.90;2.33;;;;;;;5.10;100.00;99259.16;5051880;28;20032;-58
2023/04/13 00:29:11;;;;;;;5.03;2.10;;;;;;;5.17;100.00;99296.78;5052544;28;20451;-58
2023/04/13 00:31:37;;;;;;;7.22;2.15;;;;;;;5.22;100.00;99291.81;5052442;28;20025;-58
2023/04/13 00:34:02;;;;;;;7.35;2.33;;;;;;;5.23;100.00;99294.41;5051762;28;20017;-58
2023/04/13 00:36:28;;;;;;;6.85;2.30;;;;;;;5.23;100.00;99283.34;5052207;28;20028;-57
2023/04/13 00:38:56;;;;;;;7.10;2.05;;;;;;;5.22;100.00;99284.16;5052523;28;20025;-58
2023/04/13 00:41:21;;;;;;;6.68;2.10;;;;;;;5.23;100.00;99294.41;5051565;28;20025;-58
2023/04/13 00:43:47;;;;;;;8.68;2.00;;;;;;;5.21;100.00;99279.88;5052373;28;20037;-58
2023/04/13 00:46:15;;;;;;;5.53;2.05;;;;;;;5.22;100.00;99302.88;5052814;28;20033;-57
2023/04/13 00:48:40;;;;;;;5.93;2.15;;;;;;;5.23;100.00;99284.19;5051806;28;20021;-57
2023/04/13 00:51:06;;;;;;;5.72;2.00;;;;;;;5.20;100.00;99294.34;5052540;28;20074;-58
2023/04/13 00:53:32;;;;;;;7.47;2.28;;;;;;;5.21;100.00;99290.09;5051876;28;20025;-57
2023/04/13 00:55:59;;;;;;;6.72;2.08;;;;;;;5.20;100.00;99294.34;5051938;28;20167;-57
2023/04/13 00:58:26;;;;;;;6.50;2.27;;;;;;;5.21;100.00;99295.19;5052017;28;20080;-58
2023/04/13 01:00:51;;;;;;;8.43;2.27;;;;;;;5.20;100.00;99289.22;5051696;28;20040;-58
2023/04/13 01:03:16;;;;;;;14.07;2.15;;;;;;;5.19;100.00;99287.50;5051951;28;20033;-58
2023/04/13 01:05:50;;;;;;;8.73;2.35;;;;;;;5.23;100.00;99283.34;5053615;28;20104;-57
2023/04/13 01:08:38;;;;;;;8.05;2.22;;;;;;;5.24;100.00;99288.47;5055174;28;20036;-57
2023/04/13 01:11:10;;;;;;;8.77;2.20;;;;;;;5.24;100.00;99291.03;5056008;28;20053;-58
2023/04/13 01:13:47;;;;;;;7.90;2.40;;;;;;;5.27;100.00;99274.91;5055925;28;20040;-57
2023/04/13 01:16:28;;;;;;;6.18;2.10;;;;;;;5.27;100.00;99280.03;5055387;28;20036;-57
2023/04/13 01:18:55;;;;;;;9.88;2.05;;;;;;;5.25;100.00;99282.56;5055979;28;20492;-57
2023/04/13 01:21:25;;;;;;;7.47;2.10;;;;;;;5.27;100.00;99285.13;5055472;28;20032;-57
2023/04/13 01:23:55;;;;;;;8.25;2.45;;;;;;;5.25;100.00;99287.66;5055183;28;20082;-57
2023/04/13 01:26:21;;;;;;;9.32;2.03;;;;;;;5.27;100.00;99280.03;5055437;28;20548;-58
2023/04/13 01:28:49;;;;;;;9.43;3.03;;;;;;;5.27;100.00;99290.25;5055103;28;20031;-58
2023/04/13 01:31:16;;;;;;;7.63;2.40;;;;;;;5.28;100.00;99297.94;5055559;28;20503;-57
2023/04/13 01:33:42;;;;;;;10.02;2.28;;;;;;;5.33;100.00;99294.63;5055813;28;20406;-58
2023/04/13 01:36:11;;;;;;;10.68;2.45;;;;;;;5.34;100.00;99298.94;5054962;28;20571;-58
2023/04/13 01:38:36;;;;;;;11.45;2.88;;;;;;;5.34;100.00;99291.25;5055390;28;20021;-57
2023/04/13 01:41:02;;;;;;;10.65;2.47;;;;;;;5.36;100.00;99307.47;5055522;28;20107;-57
2023/04/13 01:43:28;;;;;;;9.43;2.78;;;;;;;5.37;100.00;99307.53;5054516;28;20028;-58
2023/04/13 01:46:05;;;;;;;10.93;2.30;;;;;;;5.38;100.00;99328.84;5055481;28;20071;-58
2023/04/13 01:48:38;;;;;;;9.35;2.45;;;;;;;5.38;100.00;99318.63;5055079;28;20121;-57
2023/04/13 01:51:12;;;;;;;10.07;2.53;;;;;;;5.42;100.00;99338.31;5054491;28;20025;-58
2023/04/13 01:53:42;;;;;;;10.98;2.65;;;;;;;5.40;100.00;99335.72;5055103;28;20040;-57
2023/04/13 01:56:08;;;;;;;8.73;2.40;;;;;;;5.39;100.00;99328.00;5055108;28;20025;-58
2023/04/13 01:58:35;;;;;;;10.82;2.85;;;;;;;5.37;100.00;99337.31;5054124;28;20055;-57
2023/04/13 02:01:05;;;;;;;9.13;2.95;;;;;;;5.36;100.00;99338.13;5055140;28;20045;-57
2023/04/13 02:03:30;;;;;;;11.98;2.70;;;;;;;5.34;100.00;99350.03;5054661;28;20114;-57
2023/04/13 02:05:55;;;;;;;9.48;2.63;;;;;;;5.32;100.00;99354.22;5054372;28;20384;-57
2023/04/13 02:08:21;;;;;;;9.10;2.30;;;;;;;5.31;100.00;99345.69;5054698;28;20021;-57
2023/04/13 02:10:46;;;;;;;10.05;2.60;;;;;;;5.31;100.00;99352.47;5054800;28;20025;-58
2023/04/13 02:13:12;;;;;;;13.13;3.00;;;;;;;5.28;100.00;99354.16;5054073;28;20033;-57
2023/04/13 02:15:37;;;;;;;12.88;3.53;;;;;;;5.28;100.00;99354.16;5054320;28;20031;-58
2023/04/13 02:18:04;;;;;;;14.15;3.05;;;;;;;5.26;100.00;99360.88;5053663;28;20029;-57
2023/04/13 02:20:37;;;;;;;14.25;2.92;;;;;;;5.26;100.00;99371.09;5054540;28;20051;-57
2023/04/13 02:23:02;;;;;;;8.35;2.83;;;;;;;5.27;100.00;99370.28;5054649;28;20039;-57
2023/04/13 02:25:28;;;;;;;11.82;3.30;;;;;;;5.28;100.00;99374.56;5053619;28;20032;-58
2023/04/13 02:27:53;;;;;;;7.97;3.15;;;;;;;5.28;100.00;99389.91;5054546;28;20477;-57
2023/04/13 02:30:18;;;;;;;10.35;3.15;;;;;;;5.28;100.00;99377.13;5054199;28;20021;-58
2023/04/13 02:32:47;;;;;;;9.32;2.83;;;;;;;5.29;100.00;99390.75;5053932;28;20127;-57
2023/04/13 02:35:13;;;;;;;14.45;4.13;;;;;;;5.31;100.00;99393.34;5054503;28;20036;-58
2023/04/13 02:37:39;;;;;;;16.02;3.60;;;;;;;5.30;100.00;99404.41;5054331;28;20029;-58
2023/04/13 02:40:11;;;;;;;13.38;3.50;;;;;;;5.28;100.00;99400.13;5053705;28;20025;-58
2023/04/13 02:42:40;;;;;;;13.43;3.88;;;;;;;5.30;100.00;99412.06;5053866;28;20381;-58
2023/04/13 02:45:10;;;;;;;11.63;4.28;;;;;;;5.30;100.00;99412.94;5054347;28;20037;-58
2023/04/13 02:47:36;;;;;;;14.57;4.13;;;;;;;5.32;100.00;99410.41;5053287;28;20029;-58
2023/04/13 02:50:02;;;;;;;12.43;4.45;;;;;;;5.32;100.00;99420.63;5054269;28;20028;-58
2023/04/13 02:52:27;;;;;;;10.57;4.47;;;;;;;5.32;100.00;99433.41;5053822;28;20032;-57
2023/04/13 02:54:53;;;;;;;15.48;5.50;;;;;;;5.30;100.00;99437.63;5053293;28;20021;-58
2023/04/13 02:57:18;;;;;;;15.93;5.30;;;;;;;5.27;100.00;99440.97;5053814;28;20033;-58
2023/04/13 02:59:43;;;;;;;11.98;4.60;;;;;;;5.23;100.00;99451.91;5054181;28;20048;-57
2023/04/13 03:02:09;;;;;;;13.82;5.05;;;;;;;5.21;100.00;99451.84;5053254;28;20088;-58
2023/04/13 03:04:34;;;;;;;10.10;4.25;;;;;;;5.19;100.00;99453.50;5053490;28;20440;-58
2023/04/13 03:07:03;;;;;;;7.70;3.22;;;;;;;5.14;100.00;99455.06;5053952;28;20381;-58
2023/04/13 03:09:29;;;;;;;10.05;3.78;;;;;;;5.11;100.00;99449.84;5052683;28;20091;-58
2023/04/13 03:11:55;;;;;;;10.82;3.50;;;;;;;5.07;100.00;99461.69;5053649;28;20468;-57
2023/04/13 03:14:21;;;;;;;8.63;3.50;;;;;;;5.07;100.00;99458.25;5052899;28;20021;-57
2023/04/13 03:16:47;;;;;;;10.65;3.00;;;;;;;5.04;100.00;99466.69;5054115;28;20029;-57
2023/04/13 03:19:13;;;;;;;11.10;3.13;;;;;;;5.00;100.00;99469.97;5053663;28;20033;-57
2023/04/13 03:21:40;;;;;;;9.00;3.60;;;;;;;4.98;100.00;99476.72;5052509;28;20025;-57
2023/04/13 03:24:06;;;;;;;13.33;4.23;;;;;;;4.95;100.00;99472.38;5053323;28;20472;-57
2023/04/13 03:26:31;;;;;;;12.02;4.07;;;;;;;4.91;100.00;99475.66;5053306;28;20074;-57
2023/04/13 03:28:56;;;;;;;8.80;3.78;;;;;;;4.89;100.00;99484.09;5052036;28;20108;-57
2023/04/13 03:31:21;;;;;;;11.50;3.88;;;;;;;4.83;100.00;99495.00;5053149;28;20029;-57
2023/04/13 03:33:47;;;;;;;9.10;4.35;;;;;;;4.79;100.00;99493.19;5053572;28;20048;-57
2023/04/13 03:36:12;;;;;;;11.15;4.00;;;;;;;4.73;100.00;99498.94;5052516;28;20488;-57
2023/04/13 03:38:38;;;;;;;10.60;5.60;;;;;;;4.71;100.00;99504.81;5052964;28;20041;-57
2023/04/13 03:41:03;;;;;;;10.65;6.03;;;;;;;4.66;100.00;99501.25;5053213;28;20057;-58
2023/04/13 03:43:28;;;;;;;12.13;6.50;;;;;;;4.60;100.00;99502.78;5052261;28;20490;-57
2023/04/13 03:45:54;;;;;;;14.77;7.88;;;;;;;4.59;100.00;99507.84;5053297;28;20025;-57
2023/04/13 03:48:20;;;;;;;16.48;8.30;;;;;;;4.57;100.00;99512.91;5052893;28;20388;-58
2023/04/13 03:50:45;;;;;;;18.70;9.68;;;;;;;4.58;100.00;99521.41;5052457;28;20021;-57
2023/04/13 03:53:10;;;;;;;18.13;9.43;;;;;;;4.57;100.00;99519.69;5053017;28;20021;-57
2023/04/13 03:55:36;;;;;;;18.27;9.68;;;;;;;4.58;100.00;99527.41;5052556;28;20052;-58
2023/04/13 03:58:01;;;;;;;26.88;10.63;;;;;;;4.59;100.00;99531.66;5052402;28;20029;-57
2023/04/13 04:00:26;;;;;;;22.55;11.18;;;;;;;4.58;100.00;99529.06;5052741;28;20114;-57
2023/04/13 04:02:52;;;;;;;18.90;10.68;;;;;;;4.59;100.00;99529.13;5052929;28;20032;-58
2023/04/13 04:05:17;;;;;;;21.77;11.40;;;;;;;4.65;100.00;99542.91;5051523;28;20060;-57
2023/04/13 04:07:42;;;;;;;22.77;12.00;;;;;;;4.64;100.00;99534.38;5052784;28;20021;-57
2023/04/13 04:10:08;;;;;;;23.30;12.60;;;;;;;4.71;100.00;99538.00;5052768;28;20496;-57
2023/04/13 04:12:33;;;;;;;22.65;12.73;;;;;;;4.71;100.00;99538.00;5051871;28;20057;-57
2023/04/13 04:14:58;;;;;;;22.33;13.23;;;;;;;4.75;100.00;99550.91;5052897;28;20037;-57
2023/04/13 04:17:24;;;;;;;24.42;11.68;;;;;;;4.75;100.00;99550.03;5052515;28;20043;-57
2023/04/13 04:19:49;;;;;;;23.52;13.13;;;;;;;4.75;100.00;99570.44;5052078;28;20067;-57
2023/04/13 04:22:14;;;;;;;24.63;13.35;;;;;;;4.74;100.00;99578.94;5052864;28;20021;-57
2023/04/13 04:24:41;;;;;;;21.50;12.60;;;;;;;4.77;100.00;99581.59;5051541;28;20033;-57
2023/04/13 04:27:06;;;;;;;24.70;13.38;;;;;;;4.74;100.00;99581.50;5052825;28;20031;-57
2023/04/13 04:29:34;;;;;;;21.45;11.90;;;;;;;4.74;100.00;99574.69;5052425;28;20022;-57
2023/04/13 04:32:01;;;;;;;23.92;12.20;;;;;;;4.70;100.00;99582.19;5051751;28;20444;-57
2023/04/13 04:34:27;;;;;;;23.45;11.85;;;;;;;4.69;100.00;99581.34;5052338;28;20029;-57
2023/04/13 04:36:54;;;;;;;19.98;11.45;;;;;;;4.65;100.00;99587.16;5052493;28;20025;-57
2023/04/13 04:39:20;;;;;;;20.17;10.57;;;;;;;4.62;100.00;99589.59;5051488;28;20032;-57
2023/04/13 04:41:53;;;;;;;20.00;10.75;;;;;;;4.64;100.00;99593.09;5055582;28;20100;-57
2023/04/13 04:44:19;;;;;;;22.65;11.35;;;;;;;4.59;100.00;99603.13;5056347;28;20111;-58
2023/04/13 04:46:47;;;;;;;21.27;11.30;;;;;;;4.55;100.00;99608.09;5055716;28;20021;-57
2023/04/13 04:49:13;;;;;;;23.15;10.93;;;;;;;4.55;100.00;99616.59;5056461;28;20027;-57
2023/04/13 04:51:38;;;;;;;25.02;10.30;;;;;;;4.53;100.00;99610.59;5056040;28;20044;-57
2023/04/13 04:54:04;;;;;;;18.02;9.98;;;;;;;4.51;100.00;99617.31;5055567;28;20469;-57
2023/04/13 04:56:29;;;;;;;23.55;10.75;;;;;;;4.50;100.00;99607.06;5056133;28;20028;-57
2023/04/13 04:58:54;;;;;;;24.67;11.23;;;;;;;4.50;100.00;99610.47;5056342;28;20017;-57
2023/04/13 05:01:25;;;;;;;25.83;10.98;;;;;;;4.50;100.00;99620.69;5055234;28;20032;-57
2023/04/13 05:03:51;;;;;;;23.98;11.27;;;;;;;4.50;100.00;99620.69;5055815;28;20444;-57
2023/04/13 05:06:17;;;;;;;27.17;11.65;;;;;;;4.50;100.00;99625.78;5055649;28;20350;-57
2023/04/13 05:08:43;;;;;;;25.00;12.13;;;;;;;4.51;100.00;99624.97;5055454;28;20036;-57
2023/04/13 05:11:09;;;;;;;23.83;13.57;;;;;;;4.54;100.00;99619.97;5055890;28;20512;-57
2023/04/13 05:13:34;;;;;;;29.13;14.10;;;;;;;4.59;100.00;99631.19;5055617;28;20029;-57
2023/04/13 05:16:04;;;;;;;22.98;13.25;;;;;;;4.63;100.00;99634.72;5055295;28;20025;-57
2023/04/13 05:18:34;;;;;;;28.00;14.00;;;;;;;4.64;100.00;99633.06;5055659;28;20052;-57
2023/04/13 05:20:59;;;;;;;27.67;14.45;;;;;;;4.67;100.00;99628.91;5055277;28;20056;-57
2023/04/13 05:23:26;;;;;;;24.80;15.00;;;;;;;4.69;100.00;99636.63;5055623;28;20041;-57
2023/04/13 05:25:52;;;;;;;26.17;14.38;;;;;;;4.68;100.00;99640.84;5055994;28;20021;-58
2023/04/13 05:28:17;;;;;;;24.98;14.75;;;;;;;4.69;100.00;99644.28;5054694;28;20408;-58
2023/04/13 05:30:42;;;;;;;25.38;14.27;;;;;;;4.70;100.00;99652.00;5055703;28;20369;-57
2023/04/13 05:33:09;;;;;;;26.77;14.25;;;;;;;4.76;100.00;99653.88;5055437;28;20070;-57
2023/04/13 05:35:36;;;;;;;24.65;14.70;;;;;;;4.82;100.00;99651.53;5054502;28;20039;-57
2023/04/13 05:38:01;;;;;;;23.67;15.35;;;;;;;4.87;100.00;99651.69;5055403;28;20075;-57
2023/04/13 05:40:27;;;;;;;26.65;14.07;;;;;;;4.86;100.00;99661.03;5055371;28;20025;-57
2023/04/13 05:42:53;;;;;;;24.08;13.95;;;;;;;4.86;100.00;99666.13;5054756;28;20029;-57
2023/04/13 05:45:19;;;;;;;24.13;13.25;;;;;;;4.88;100.00;99654.28;5054984;28;20110;-57
2023/04/13 05:47:44;;;;;;;26.05;13.82;;;;;;;4.90;100.00;99665.41;5055465;28;20031;-57
2023/04/13 05:50:10;;;;;;;21.25;11.70;;;;;;;4.93;100.00;99672.31;5054414;28;20112;-57
2023/04/13 05:52:35;;;;;;;17.67;9.80;;;;;;;4.98;100.00;99672.47;5053979;28;20048;-57
2023/04/13 05:55:01;;;;;;;21.45;9.73;;;;;;;5.05;100.00;99674.41;5055342;28;20529;-57
2023/04/13 05:57:26;;;;;;;18.63;9.05;;;;;;;5.11;100.00;99677.16;5054327;28;20029;-57
2023/04/13 05:59:52;;;;;;;15.80;8.88;;;;;;;5.16;100.00;99684.97;5055413;28;20031;-57
2023/04/13 06:02:21;;;;;;;14.90;8.00;;;;;;;5.17;100.00;99697.78;5054902;28;20453;-57
2023/04/13 06:04:46;;;;;;;16.80;7.80;;;;;;;5.18;100.00;99704.63;5053975;28;20126;-57
2023/04/13 06:07:15;;;;;;;14.70;6.40;;;;;;;5.18;100.00;99714.84;5055214;28;20080;-57
2023/04/13 06:09:41;;;;;;;12.85;6.60;;;;;;;5.20;100.00;99718.34;5055123;28;20052;-57
2023/04/13 06:12:06;;;;;;;13.60;6.80;;;;;;;5.19;100.00;99716.59;5054367;28;20103;-58
2023/04/13 06:14:33;;;;;;;21.45;6.70;;;;;;;5.18;100.00;99724.22;5054529;28;20076;-57
2023/04/13 06:16:58;;;;;;;14.90;6.57;;;;;;;5.16;100.00;99731.81;5054847;28;20032;-58
2023/04/13 06:19:24;;;;;;;14.07;6.38;;;;;;;5.20;100.00;99735.34;5053682;28;20104;-57
2023/04/13 06:21:50;;;;;;;13.57;6.13;;;;;;;5.18;100.00;99735.28;5054883;28;20028;-58
2023/04/13 06:24:16;;;;;;;15.27;5.93;;;;;;;5.20;100.00;99731.13;5053733;28;20373;-58
2023/04/13 06:26:41;;;;;;;13.15;6.30;;;;;;;5.25;100.00;99739.78;5054568;28;20029;-59
2023/04/13 06:29:07;;;;;;;14.60;6.72;;;;;;;5.32;100.00;99743.41;5054493;28;20557;-57
2023/04/13 06:31:32;;;;;;;12.93;7.32;;;;;;;5.39;100.00;99747.03;5053570;28;20028;-57
2023/04/13 06:33:57;;;;;;;17.27;7.10;;;;;;;5.46;100.00;99750.66;5054471;28;20091;-58
2023/04/13 06:36:23;;;;;;;13.93;7.18;;;;;;;5.47;100.00;99747.28;5054503;28;20029;-59
2023/04/13 06:38:48;;;;;;;13.18;7.53;;;;;;;5.47;100.00;99755.81;5053710;28;20469;-60
2023/04/13 06:41:14;;;;;;;15.38;7.25;;;;;;;5.45;100.00;99762.56;5054524;28;20025;-58
2023/04/13 06:43:39;;;;;;;14.82;7.60;;;;;;;5.46;100.00;99764.28;5054083;28;20033;-59
2023/04/13 06:46:05;;;;;;;16.00;7.60;;;;;;;5.49;100.00;99759.28;5053649;28;20090;-58
2023/04/13 06:48:30;;;;;;;20.95;10.13;;;;;;;5.56;100.00;99768.88;5053809;28;20033;-57
2023/04/13 06:50:56;;;;;;;16.48;7.65;;;;;;;5.58;100.00;99772.38;5054413;28;20350;-58
2023/04/13 06:53:22;;;;;;;16.05;7.22;;;;;;;5.59;100.00;99774.13;5053247;28;20036;-57
2023/04/13 06:55:47;;;;;;;14.73;7.32;;;;;;;5.61;100.00;99785.22;5054223;28;20021;-57
2023/04/13 06:58:12;;;;;;;14.73;7.25;;;;;;;5.65;100.00;99782.78;5054247;28;20036;-57
2023/04/13 07:00:38;;;;;;;13.75;6.85;;;;;;;5.69;100.00;99776.97;5052990;28;20036;-58
2023/04/13 07:03:03;;;;;;;16.95;6.70;;;;;;;5.70;100.00;99787.22;5053912;28;20033;-57
2023/04/13 07:05:29;;;;;;;19.30;8.35;;;;;;;5.72;100.00;99790.72;5053351;28;20056;-58
2023/04/13 07:07:55;;;;;;;15.65;6.00;;;;;;;5.74;100.00;99793.31;5053369;28;20476;-58
2023/04/13 07:10:21;;;;;;;20.42;8.30;;;;;;;5.77;100.00;99795.94;5053661;28;20484;-57
2023/04/13 07:12:46;;;;;;;25.73;10.02;;;;;;;5.81;100.00;99794.38;5053741;28;20028;-57
2023/04/13 07:15:12;;;;;;;25.60;12.40;;;;;;;5.84;100.00;99808.13;5053269;28;20056;-57
2023/04/13 07:17:37;;;;;;;28.98;11.70;;;;;;;5.87;100.00;99810.78;5053099;28;20509;-57
2023/04/13 07:20:04;;;;;;;31.67;12.25;;;;;;;5.96;100.00;99820.44;5053792;28;20384;-58
2023/04/13 07:22:32;;;;;;;21.90;6.88;;;;;;;6.04;100.00;99828.38;5052426;28;20384;-57
2023/04/13 07:24:57;;;;;;;;;;;;;;;6.14;100.00;99825.28;5053905;28;20032;-57
2023/04/13 07:27:22;;;;;;;15.53;6.03;;;;;;;6.19;100.00;99826.28;5053285;28;19913;-57
2023/04/13 07:29:51;;;;;;;19.10;6.57;;;;;;;6.27;100.00;99839.31;5052698;28;20275;-58
2023/04/13 07:32:16;;;;;;;17.42;6.43;;;;;;;6.33;100.00;99825.88;5052902;28;20466;-57
2023/04/13 07:34:41;;;;;;;16.33;5.75;;;;;;;6.38;100.00;99850.75;5052706;28;20059;-56
2023/04/13 07:37:07;;;;;;;17.17;6.00;;;;;;;6.48;100.00;99846.81;5053314;28;20017;-57
2023/04/13 07:39:33;;;;;;;17.80;5.95;;;;;;;6.50;100.00;99842.56;5053177;28;20040;-57
2023/04/13 07:41:58;;;;;;;16.70;5.97;;;;;;;6.54;100.00;99856.34;5052615;28;20036;-57
2023/04/13 07:44:24;;;;;;;19.60;7.15;;;;;;;6.59;100.00;99850.53;5052843;28;20451;-56
2023/04/13 07:46:49;;;;;;;28.38;9.82;;;;;;;6.65;100.00;99860.09;5053118;28;20075;-56
2023/04/13 07:49:17;;;;;;;21.90;6.55;;;;;;;6.73;100.00;99868.00;5052445;28;20028;-57
2023/04/13 07:51:42;;;;;;;19.23;6.03;;;;;;;6.83;100.00;99885.38;5053064;28;20021;-57
2023/04/13 07:54:07;;;;;;;18.52;6.25;;;;;;;6.90;100.00;99871.91;5052983;28;20104;-57
2023/04/13 07:56:35;;;;;;;17.60;6.05;;;;;;;6.94;100.00;99872.88;5051884;28;20025;-57
2023/04/13 07:59:00;;;;;;;19.98;6.10;;;;;;;6.95;100.00;99886.56;5053023;28;20025;-59
2023/04/13 08:01:26;;;;;;;18.45;5.28;;;;;;;6.98;100.00;99891.75;5052713;28;20025;-57
2023/04/13 08:03:51;;;;;;;21.65;6.30;;;;;;;7.06;100.00;99887.72;5052037;28;20415;-57
2023/04/13 08:06:19;;;;;;;20.10;6.43;;;;;;;7.08;100.00;99893.75;5052639;28;20032;-57
2023/04/13 08:08:45;;;;;;;19.42;5.72;;;;;;;7.14;100.00;99900.75;5052895;28;20472;-57
2023/04/13 08:11:11;;;;;;;16.58;5.40;;;;;;;7.16;100.00;99902.53;5052081;28;20036;-57
2023/04/13 08:13:36;;;;;;;17.95;5.80;;;;;;;7.17;100.00;99911.94;5052446;28;20054;-57
2023/04/13 08:16:02;;;;;;;15.90;5.88;;;;;;;7.22;100.00;99917.22;5052412;28;20361;-57
2023/04/13 08:18:28;;;;;;;16.23;5.20;;;;;;;7.25;100.00;99915.59;5051622;28;20395;-57
2023/04/13 08:20:54;;;;;;;19.35;5.28;;;;;;;7.37;100.00;99920.22;5052027;28;20372;-58
2023/04/13 08:23:21;;;;;;;18.38;5.53;;;;;;;7.41;100.00;99926.25;5052512;28;20025;-57
2023/04/13 08:25:46;;;;;;;19.03;5.80;;;;;;;7.48;100.00;99922.19;5052123;28;20028;-57
2023/04/13 08:28:11;;;;;;;20.15;5.90;;;;;;;7.58;100.00;99927.59;5052568;28;20017;-58
2023/04/13 08:30:37;;;;;;;25.92;6.95;;;;;;;7.64;100.00;99936.28;5052363;28;20118;-57
2023/04/13 08:33:03;;;;;;;18.48;5.55;;;;;;;7.71;100.00;99944.19;5052129;28;20342;-57
2023/04/13 08:35:28;;;;;;;26.15;5.68;;;;;;;7.76;100.00;99949.47;5052156;28;20064;-57
2023/04/13 08:37:53;;;;;;;21.58;5.40;;;;;;;7.81;100.00;99952.13;5051950;28;20025;-57
2023/04/13 08:40:19;;;;;;;22.30;5.80;;;;;;;7.89;100.00;99960.91;5052483;28;20075;-57
2023/04/13 08:42:45;;;;;;;19.63;4.93;;;;;;;7.91;99.69;99967.81;5052695;28;20025;-57
2023/04/13 08:45:12;;;;;;;21.83;5.35;;;;;;;7.99;98.85;99968.00;5051572;28;20450;-57
2023/04/13 08:47:39;;;;;;;20.98;4.93;;;;;;;8.04;98.08;99975.81;5052276;28;20100;-58
2023/04/13 08:50:06;;;;;;;21.90;5.45;;;;;;;8.05;96.08;99975.00;5052668;28;20100;-57
2023/04/13 08:52:33;;;;;;;18.30;5.10;;;;;;;8.16;97.22;99976.13;5051195;28;20017;-57
2023/04/13 08:55:01;;;;;;;20.65;5.20;;;;;;;8.31;97.12;99974.78;5052413;28;20061;-57
2023/04/13 08:57:28;;;;;;;18.00;4.40;;;;;;;8.40;95.74;99972.44;5052099;28;20041;-58
2023/04/13 08:59:55;;;;;;;16.93;5.20;;;;;;;8.44;95.22;99988.78;5051767;28;20108;-57
2023/04/13 09:02:27;;;;;;;19.38;4.53;;;;;;;8.48;93.96;99994.09;5052113;28;20021;-57
2023/04/13 09:04:56;;;;;;;18.45;4.18;;;;;;;8.64;93.46;99995.31;5052261;28;20071;-57
2023/04/13 09:07:26;;;;;;;20.65;4.28;;;;;;;8.90;92.21;100000.19;5051184;28;20115;-57
2023/04/13 09:09:57;;;;;;;13.63;4.32;;;;;;;8.94;90.73;100004.53;5052207;28;20392;-57
2023/04/13 09:12:26;;;;;;;19.98;4.93;;;;;;;9.04;91.26;100003.06;5051900;28;20087;-57
2023/04/13 09:14:52;;;;;;;19.00;4.57;;;;;;;9.00;87.50;100007.25;5051567;28;20025;-56
2023/04/13 09:17:28;;;;;;;18.25;4.72;;;;;;;9.10;88.85;100015.16;5051907;28;20075;-57
2023/04/13 09:19:56;;;;;;;19.38;4.72;;;;;;;9.20;88.82;100017.97;5052345;28;20017;-57
2023/04/13 09:22:24;;;;;;;18.75;4.50;;;;;;;9.38;89.54;100030.34;5051454;28;20035;-57
2023/04/13 09:24:50;;;;;;;;;;;;;;;9.41;86.23;100026.97;5052470;28;20045;-57
2023/04/13 09:27:22;;;;;;;22.83;3.78;;;;;;;9.06;86.47;100014.22;5051771;28;19920;-57
2023/04/13 09:29:52;;;;;;;19.60;4.10;;;;;;;8.98;87.48;100033.75;5055581;28;20553;-57
2023/04/13 09:32:22;;;;;;;18.10;4.00;;;;;;;8.90;86.68;100034.44;5055483;28;20254;-57
2023/04/13 09:35:03;;;;;;;24.08;4.78;;;;;;;8.84;87.90;100047.13;5054861;28;20055;-57
2023/04/13 09:37:29;;;;;;;18.23;3.95;;;;;;;8.84;88.47;100048.84;5055228;28;20376;-57
2023/04/13 09:39:54;;;;;;;24.42;4.07;;;;;;;8.92;87.55;100057.59;5055380;28;20021;-57
2023/04/13 09:42:20;;;;;;;14.20;3.67;;;;;;;9.07;87.05;100059.66;5054475;28;20079;-57
2023/04/13 09:44:57;;;;;;;22.63;5.13;;;;;;;9.23;86.30;100063.44;5055495;28;20029;-57
2023/04/13 09:47:23;;;;;;;;;;;;;;;9.27;86.43;100079.81;5055553;28;20025;-58
2023/04/13 09:49:48;;;;;;;23.75;5.10;;;;;;;8.98;85.50;100078.31;5054480;28;20292;-58
2023/04/13 09:52:24;;;;;;;19.60;4.88;;;;;;;8.86;85.97;100089.16;5055185;28;20037;-57
2023/04/13 09:54:54;;;;;;;18.83;5.25;;;;;;;8.81;86.46;100095.03;5055175;28;20473;-58
2023/04/13 09:57:26;;;;;;;16.98;4.53;;;;;;;8.70;86.44;100089.63;5054086;28;20021;-58
2023/04/13 09:59:52;;;;;;;15.75;4.07;;;;;;;8.65;87.90;100102.38;5055262;28;20056;-58
2023/04/13 10:02:18;;;;;;;18.70;3.72;;;;;;;8.64;87.54;100103.19;5054124;28;20020;-58
2023/04/13 10:04:44;;;;;;;17.40;3.88;;;;;;;8.69;86.71;100090.47;5054971;28;20400;-58
2023/04/13 10:07:10;;;;;;;20.35;4.15;;;;;;;8.79;86.46;100105.28;5055068;28;20025;-58
2023/04/13 10:09:35;;;;;;;18.55;4.30;;;;;;;9.03;86.45;100104.13;5054059;28;20102;-58
2023/04/13 10:12:03;;;;;;;18.90;3.63;;;;;;;9.22;84.36;100114.00;5054835;28;20431;-58
2023/04/13 10:14:33;;;;;;;22.33;4.00;;;;;;;9.18;82.04;100127.63;5054611;28;20032;-58
2023/04/13 10:17:11;;;;;;;16.02;4.03;;;;;;;9.18;84.55;100132.78;5054038;28;20029;-58
2023/04/13 10:19:44;;;;;;;20.92;4.63;;;;;;;9.16;85.38;100137.00;5054612;28;20028;-57
2023/04/13 10:22:10;;;;;;;18.60;4.40;;;;;;;9.15;86.12;100135.25;5054839;28;20021;-57
2023/04/13 10:24:38;;;;;;;20.13;4.70;;;;;;;9.10;85.17;100143.69;5053684;28;20485;-57
2023/04/13 10:27:13;;;;;;;16.52;4.00;;;;;;;9.07;86.86;100150.50;5054516;28;20036;-58
2023/04/13 10:29:38;;;;;;;18.85;4.75;;;;;;;9.02;85.44;100146.09;5054417;28;20053;-58
2023/04/13 10:32:05;;;;;;;22.98;5.32;;;;;;;8.92;85.57;100154.41;5054041;28;20064;-57
2023/04/13 10:34:33;;;;;;;19.90;5.30;;;;;;;8.81;87.07;100155.00;5054214;28;20024;-58
2023/04/13 10:37:02;;;;;;;20.50;7.03;;;;;;;8.65;89.35;100155.41;5054549;28;20035;-57
2023/04/13 10:39:29;;;;;;;21.83;6.10;;;;;;;8.43;89.48;100164.22;5052951;28;20049;-58
2023/04/13 10:42:02;;;;;;;16.60;6.27;;;;;;;8.30;92.00;100178.41;5054260;28;20443;-58
2023/04/13 10:44:52;;;;;;;18.98;5.85;;;;;;;8.44;90.32;100174.53;5053182;28;20024;-58
2023/04/13 10:47:19;;;;;;;27.10;7.22;;;;;;;8.73;90.40;100175.34;5054078;28;20115;-58
2023/04/13 10:49:45;;;;;;;20.77;6.10;;;;;;;9.08;88.85;100177.09;5054141;28;20381;-58
2023/04/13 10:52:11;;;;;;;20.38;6.45;;;;;;;9.20;87.35;100182.50;5053357;28;20017;-57
2023/04/13 10:54:38;;;;;;;22.40;6.00;;;;;;;9.55;86.41;100194.47;5053960;28;20021;-58
2023/04/13 10:57:08;;;;;;;21.83;4.97;;;;;;;9.49;83.59;100184.03;5054188;28;20025;-58
2023/04/13 10:59:43;;;;;;;19.15;4.60;;;;;;;9.46;83.64;100191.69;5053024;28;20016;-57
2023/04/13 11:02:14;;;;;;;18.50;4.35;;;;;;;9.43;83.25;100199.34;5054068;28;20029;-57
2023/04/13 11:04:41;;;;;;;16.33;4.10;;;;;;;9.26;82.15;100206.63;5053204;28;20053;-58
2023/04/13 11:07:11;;;;;;;15.23;4.25;;;;;;;9.16;81.70;100201.28;5053297;28;20349;-58
2023/04/13 11:09:37;;;;;;;20.35;4.18;;;;;;;9.22;82.67;100206.56;5053843;28;20027;-57
2023/04/13 11:12:05;;;;;;;20.13;4.03;;;;;;;9.43;81.00;100214.78;5053395;28;20070;-58
2023/04/13 11:14:31;;;;;;;16.13;3.80;;;;;;;9.78;78.64;100215.59;5052792;28;20059;-58
2023/04/13 11:16:56;;;;;;;15.65;3.63;;;;;;;10.13;78.71;100215.47;5053584;28;20362;-58
2023/04/13 11:19:22;;;;;;;14.27;3.40;;;;;;;10.09;75.46;100225.72;5053127;28;20034;-58
2023/04/13 11:21:58;;;;;;;15.30;3.85;;;;;;;10.09;74.02;100218.84;5052633;28;20029;-57
2023/04/13 11:24:28;;;;;;;13.52;3.35;;;;;;;10.53;74.36;100234.41;5053292;28;20500;-57
2023/04/13 11:26:53;;;;;;;18.08;4.13;;;;;;;10.83;72.36;100219.47;5052798;28;20021;-57